createdAt,value
2022-11-29T00:01:17.714Z,6.65
2022-11-29T00:03:44.864Z,6.60
2022-11-29T00:06:14.526Z,6.58
2022-11-29T00:08:42.160Z,6.57
2022-11-29T00:11:36.739Z,6.54
2022-11-29T00:14:03.918Z,6.53
2022-11-29T00:16:30.968Z,6.56
2022-11-29T00:18:57.822Z,6.58
2022-11-29T00:21:24.770Z,6.52
2022-11-29T00:23:51.685Z,6.54
2022-11-29T00:26:18.428Z,6.53
2022-11-29T00:28:45.351Z,6.52
2022-11-29T00:31:24.652Z,6.51
2022-11-29T00:33:52.309Z,6.49
2022-11-29T00:36:19.943Z,6.48
2022-11-29T00:38:46.816Z,6.48
2022-11-29T00:41:13.763Z,6.44
2022-11-29T00:43:41.084Z,6.42
2022-11-29T00:46:08.718Z,6.44
2022-11-29T00:48:36.521Z,6.48
2022-11-29T00:51:04.468Z,6.44
2022-11-29T00:53:31.553Z,6.45
2022-11-29T00:55:58.396Z,6.46
2022-11-29T00:58:25.330Z,6.45
2022-11-29T01:00:54.829Z,6.42
2022-11-29T01:03:21.784Z,6.44
2022-11-29T01:05:48.845Z,6.41
2022-11-29T01:08:17.236Z,6.38
2022-11-29T01:10:44.277Z,6.39
2022-11-29T01:13:11.791Z,6.35
2022-11-29T01:15:38.591Z,6.29
2022-11-29T01:18:05.484Z,6.28
2022-11-29T01:20:32.236Z,6.31
2022-11-29T01:22:59.037Z,6.27
2022-11-29T01:25:25.864Z,6.24
2022-11-29T01:27:52.814Z,6.15
2022-11-29T01:30:19.731Z,6.16
2022-11-29T01:32:46.515Z,6.16
2022-11-29T01:35:13.553Z,6.17
2022-11-29T01:37:40.401Z,6.13
2022-11-29T01:40:07.815Z,6.13
2022-11-29T01:42:34.615Z,6.09
2022-11-29T01:45:08.063Z,6.11
2022-11-29T01:47:42.120Z,6.07
2022-11-29T01:50:09.944Z,5.99
2022-11-29T01:52:36.932Z,6.01
2022-11-29T01:55:07.465Z,6.06
2022-11-29T01:57:36.566Z,6.05
2022-11-29T02:00:09.069Z,6.04
2022-11-29T02:02:55.693Z,6.06
2022-11-29T02:05:23.581Z,6.04
2022-11-29T02:07:53.757Z,6.01
2022-11-29T02:10:28.901Z,6.07
2022-11-29T02:13:07.674Z,6.07
2022-11-29T02:15:46.358Z,6.08
2022-11-29T02:18:26.928Z,6.06
2022-11-29T02:21:02.962Z,6.07
2022-11-29T02:23:44.617Z,6.07
2022-11-29T02:26:43.413Z,6.00
2022-11-29T02:29:37.828Z,6.05
2022-11-29T02:32:23.048Z,6.06
2022-11-29T02:35:10.906Z,6.02
2022-11-29T02:38:07.860Z,6.04
2022-11-29T02:40:52.980Z,6.06
2022-11-29T02:43:53.536Z,6.01
2022-11-29T02:46:23.117Z,6.00
2022-11-29T02:49:10.661Z,5.99
2022-11-29T02:52:01.498Z,5.95
2022-11-29T02:54:38.752Z,5.98
2022-11-29T02:57:18.065Z,5.90
2022-11-29T02:59:57.181Z,5.92
2022-11-29T03:02:47.373Z,5.91
2022-11-29T03:05:35.746Z,5.87
2022-11-29T03:08:29.857Z,5.80
2022-11-29T03:11:21.010Z,5.84
2022-11-29T03:14:25.287Z,5.89
2022-11-29T03:16:54.856Z,5.86
2022-11-29T03:19:24.684Z,5.85
2022-11-29T03:22:09.892Z,5.83
2022-11-29T03:24:51.753Z,5.83
2022-11-29T03:27:28.475Z,5.82
2022-11-29T03:30:02.435Z,5.74
2022-11-29T03:32:47.764Z,5.74
2022-11-29T03:35:48.009Z,5.75
2022-11-29T03:38:39.960Z,5.75
2022-11-29T03:41:23.165Z,5.72
2022-11-29T03:44:19.356Z,5.79
2022-11-29T03:47:26.120Z,5.74
2022-11-29T03:50:05.359Z,5.70
2022-11-29T03:52:38.404Z,5.66
2022-11-29T03:55:29.372Z,5.66
2022-11-29T03:58:04.781Z,5.66
2022-11-29T04:00:55.912Z,5.68
2022-11-29T04:03:54.963Z,5.66
2022-11-29T04:06:59.540Z,5.64
2022-11-29T04:09:32.248Z,5.68
2022-11-29T04:12:27.208Z,5.67
2022-11-29T04:15:15.460Z,5.68
2022-11-29T04:18:25.786Z,5.69
2022-11-29T04:21:17.028Z,5.66
2022-11-29T04:24:07.633Z,5.63
2022-11-29T04:27:11.162Z,5.66
2022-11-29T04:29:56.420Z,5.67
2022-11-29T04:32:41.067Z,5.64
2022-11-29T04:35:41.804Z,5.60
2022-11-29T04:38:29.894Z,5.54
2022-11-29T04:41:17.307Z,5.52
2022-11-29T04:43:46.962Z,5.52
2022-11-29T04:46:41.046Z,5.50
2022-11-29T04:49:25.663Z,5.45
2022-11-29T04:52:13.512Z,5.46
2022-11-29T04:55:23.731Z,5.47
2022-11-29T04:58:15.568Z,5.48
2022-11-29T05:00:53.168Z,5.45
2022-11-29T05:03:33.443Z,5.48
2022-11-29T05:06:23.225Z,5.50
2022-11-29T05:09:06.498Z,5.47
2022-11-29T05:11:57.259Z,5.48
2022-11-29T05:14:48.131Z,5.42
2022-11-29T05:17:42.553Z,5.43
2022-11-29T05:20:36.720Z,5.40
2022-11-29T05:23:22.085Z,5.28
2022-11-29T05:26:05.637Z,5.26
2022-11-29T05:28:50.328Z,5.21
2022-11-29T05:31:43.744Z,5.26
2022-11-29T05:34:51.922Z,5.21
2022-11-29T05:37:18.677Z,5.24
2022-11-29T05:39:45.364Z,5.24
2022-11-29T05:42:42.313Z,5.17
2022-11-29T05:45:18.455Z,5.16
2022-11-29T05:47:57.817Z,5.17
2022-11-29T05:50:30.357Z,5.15
2022-11-29T05:53:51.097Z,5.08
2022-11-29T05:56:34.362Z,5.07
2022-11-29T05:59:07.671Z,5.07
2022-11-29T06:02:01.890Z,5.07
2022-11-29T06:04:34.748Z,5.10
2022-11-29T06:07:15.420Z,5.16
2022-11-29T06:10:04.442Z,5.16
2022-11-29T06:12:35.977Z,5.15
2022-11-29T06:15:28.480Z,5.12
2022-11-29T06:18:31.393Z,5.10
2022-11-29T06:21:04.457Z,5.07
2022-11-29T06:23:37.081Z,5.09
2022-11-29T06:26:19.272Z,5.05
2022-11-29T06:28:58.307Z,5.05
2022-11-29T06:31:51.217Z,5.08
2022-11-29T06:34:33.860Z,5.04
2022-11-29T06:37:12.457Z,5.00
2022-11-29T06:39:39.401Z,5.03
2022-11-29T06:42:06.134Z,5.05
2022-11-29T06:44:33.239Z,4.96
2022-11-29T06:47:11.752Z,5.00
2022-11-29T06:50:22.680Z,5.03
2022-11-29T06:53:11.923Z,5.04
2022-11-29T06:55:44.668Z,5.07
2022-11-29T06:58:36.073Z,5.07
2022-11-29T07:01:31.205Z,5.04
2022-11-29T07:04:16.415Z,5.04
2022-11-29T07:06:43.737Z,5.07
2022-11-29T07:09:17.429Z,5.06
2022-11-29T07:11:46.403Z,5.05
2022-11-29T07:14:13.625Z,5.01
2022-11-29T07:16:40.470Z,5.00
2022-11-29T07:19:41.269Z,5.00
2022-11-29T07:22:44.760Z,5.00
2022-11-29T07:25:38.410Z,4.97
2022-11-29T07:28:20.397Z,4.95
2022-11-29T07:31:21.699Z,4.93
2022-11-29T07:34:25.341Z,4.91
2022-11-29T07:36:52.081Z,4.90
2022-11-29T07:39:30.551Z,4.96
2022-11-29T07:42:27.096Z,4.92
2022-11-29T07:45:27.882Z,4.92
2022-11-29T07:47:55.234Z,4.91
2022-11-29T07:50:22.282Z,4.92
2022-11-29T07:52:49.472Z,4.90
2022-11-29T07:55:25.533Z,4.89
2022-11-29T07:57:53.115Z,4.88
2022-11-29T08:00:20.949Z,4.88
2022-11-29T08:02:49.319Z,4.87
2022-11-29T08:05:16.338Z,4.88
2022-11-29T08:07:43.797Z,4.78
2022-11-29T08:10:16.730Z,3.91
2022-11-29T08:12:46.503Z,4.14
2022-11-29T08:15:13.765Z,4.51
2022-11-29T08:17:40.645Z,4.64
2022-11-29T08:20:09.208Z,4.68
2022-11-29T08:22:36.098Z,4.74
2022-11-29T08:25:04.232Z,4.76
2022-11-29T08:27:31.379Z,4.73
2022-11-29T08:29:58.316Z,4.71
2022-11-29T08:32:26.229Z,4.65
2022-11-29T08:34:53.084Z,4.62
2022-11-29T08:37:19.903Z,4.68
2022-11-29T08:39:46.683Z,4.67
2022-11-29T08:42:13.520Z,4.58
2022-11-29T08:44:40.621Z,4.58
2022-11-29T08:47:25.929Z,4.61
2022-11-29T08:50:01.621Z,4.57
2022-11-29T08:52:54.394Z,4.64
2022-11-29T08:55:23.905Z,4.68
2022-11-29T08:57:52.384Z,4.68
2022-11-29T09:00:21.408Z,4.64
2022-11-29T09:02:48.907Z,4.64
2022-11-29T09:05:15.886Z,4.61
2022-11-29T09:07:43.435Z,4.63
2022-11-29T09:10:11.320Z,4.59
2022-11-29T09:12:39.914Z,4.57
2022-11-29T09:15:09.415Z,4.57
2022-11-29T09:17:36.447Z,4.58
2022-11-29T09:20:04.364Z,4.63
2022-11-29T09:22:31.567Z,4.68
2022-11-29T09:24:58.373Z,4.69
2022-11-29T09:27:25.220Z,4.69
2022-11-29T09:29:52.042Z,4.73
2022-11-29T09:32:18.848Z,4.73
2022-11-29T09:34:46.108Z,4.71
2022-11-29T09:37:13.189Z,4.73
2022-11-29T09:39:41.521Z,4.69
2022-11-29T09:42:22.931Z,4.73
2022-11-29T09:45:18.475Z,4.73
2022-11-29T09:48:00.628Z,4.71
2022-11-29T09:50:34.746Z,4.68
2022-11-29T09:53:09.200Z,4.64
2022-11-29T09:56:05.721Z,4.69
2022-11-29T09:58:41.171Z,4.69
2022-11-29T10:01:11.981Z,4.71
2022-11-29T10:03:43.070Z,4.72
2022-11-29T10:06:27.173Z,4.68
2022-11-29T10:09:30.824Z,4.71
2022-11-29T10:12:09.878Z,4.73
2022-11-29T10:14:44.871Z,4.71
2022-11-29T10:17:17.974Z,4.69
2022-11-29T10:19:50.808Z,4.64
2022-11-29T10:22:42.812Z,4.62
2022-11-29T10:25:19.204Z,4.61
2022-11-29T10:27:46.017Z,4.59
2022-11-29T10:30:16.711Z,4.64
2022-11-29T10:32:46.864Z,4.69
2022-11-29T10:35:19.870Z,4.71
2022-11-29T10:38:07.575Z,4.71
2022-11-29T10:40:37.861Z,4.74
2022-11-29T10:43:04.830Z,4.74
2022-11-29T10:45:35.297Z,4.74
2022-11-29T10:48:04.189Z,4.75
2022-11-29T10:50:34.520Z,4.72
2022-11-29T10:53:06.305Z,4.74
2022-11-29T10:55:44.243Z,4.73
2022-11-29T10:58:28.461Z,4.76
2022-11-29T11:01:07.468Z,4.76
2022-11-29T11:03:36.454Z,4.72
2022-11-29T11:06:08.108Z,4.68
2022-11-29T11:08:36.000Z,4.69
2022-11-29T11:11:04.857Z,4.72
2022-11-29T11:13:32.663Z,4.68
2022-11-29T11:15:59.474Z,4.74
2022-11-29T11:18:29.210Z,4.72
2022-11-29T11:21:02.035Z,4.71
2022-11-29T11:23:31.683Z,4.74
2022-11-29T11:26:05.270Z,4.75
2022-11-29T11:28:47.125Z,4.77
2022-11-29T11:31:14.229Z,4.81
2022-11-29T11:33:43.054Z,4.81
2022-11-29T11:36:14.397Z,4.80
2022-11-29T11:38:58.600Z,4.81
2022-11-29T11:41:56.449Z,4.86
2022-11-29T11:44:48.421Z,4.86
2022-11-29T11:47:22.100Z,4.82
2022-11-29T11:50:03.833Z,4.84
2022-11-29T11:52:41.326Z,4.84
2022-11-29T11:55:40.442Z,4.84
2022-11-29T11:58:10.500Z,4.84
2022-11-29T12:03:39.864Z,4.87
2022-11-29T12:06:25.420Z,4.90
2022-11-29T12:08:58.097Z,4.93
2022-11-29T12:11:26.279Z,4.94
2022-11-29T12:13:56.948Z,4.97
2022-11-29T12:16:30.231Z,4.96
2022-11-29T12:19:03.168Z,4.96
2022-11-29T12:21:37.512Z,4.98
2022-11-29T12:24:16.969Z,5.00
2022-11-29T12:26:59.951Z,5.00
2022-11-29T12:29:30.116Z,5.02
2022-11-29T12:32:05.897Z,5.03
2022-11-29T12:34:43.193Z,5.05
2022-11-29T12:37:18.873Z,5.05
2022-11-29T12:39:55.981Z,5.05
2022-11-29T12:42:41.017Z,5.07
2022-11-29T12:45:32.509Z,5.09
2022-11-29T12:48:25.188Z,5.08
2022-11-29T12:51:16.801Z,5.10
2022-11-29T12:53:43.603Z,5.11
2022-11-29T12:56:27.652Z,5.13
2022-11-29T12:59:37.212Z,5.11
2022-11-29T13:02:28.691Z,5.11
2022-11-29T13:05:20.041Z,5.12
2022-11-29T13:08:16.586Z,5.13
2022-11-29T13:11:16.493Z,5.15
2022-11-29T13:14:08.349Z,5.17
2022-11-29T13:17:00.339Z,5.16
2022-11-29T13:19:50.952Z,5.17
2022-11-29T13:22:20.440Z,5.16
2022-11-29T13:24:51.848Z,5.19
2022-11-29T13:27:31.394Z,5.19
2022-11-29T13:30:00.550Z,5.19
2022-11-29T13:32:35.881Z,5.22
2022-11-29T13:35:20.790Z,5.21
2022-11-29T13:38:25.625Z,5.20
2022-11-29T13:41:21.429Z,5.20
2022-11-29T13:44:02.749Z,5.22
2022-11-29T13:46:56.568Z,5.20
2022-11-29T13:50:06.067Z,5.22
2022-11-29T13:52:42.343Z,5.22
2022-11-29T13:55:12.006Z,5.22
2022-11-29T13:58:16.809Z,5.22
2022-11-29T14:00:44.499Z,5.22
2022-11-29T14:03:23.219Z,5.22
2022-11-29T14:06:02.115Z,5.22
2022-11-29T14:09:17.958Z,5.23
2022-11-29T14:11:49.121Z,5.24
2022-11-29T14:14:15.880Z,5.23
2022-11-29T14:16:43.796Z,5.22
2022-11-29T14:19:10.621Z,5.22
2022-11-29T14:21:56.013Z,5.22
2022-11-29T14:24:39.644Z,5.24
2022-11-29T14:27:06.516Z,5.22
2022-11-29T14:29:52.810Z,5.24
2022-11-29T14:32:49.426Z,5.25
2022-11-29T14:35:39.393Z,5.24
2022-11-29T14:38:09.054Z,5.25
2022-11-29T14:40:41.967Z,5.25
2022-11-29T14:43:38.020Z,5.24
2022-11-29T14:46:16.834Z,5.25
2022-11-29T14:49:08.039Z,5.23
2022-11-29T14:51:35.217Z,5.20
2022-11-29T14:54:14.655Z,5.21
2022-11-29T14:56:45.869Z,5.20
2022-11-29T14:59:51.432Z,5.20
2022-11-29T15:02:18.351Z,5.20
2022-11-29T15:04:46.209Z,5.20
2022-11-29T15:07:18.681Z,5.21
2022-11-29T15:09:50.349Z,5.18
2022-11-29T15:12:21.921Z,5.18
2022-11-29T15:15:07.263Z,5.18
2022-11-29T15:17:54.778Z,5.19
2022-11-29T15:20:24.371Z,5.20
2022-11-29T15:22:52.996Z,5.17
2022-11-29T15:25:23.197Z,5.18
2022-11-29T15:27:51.908Z,5.16
2022-11-29T15:30:42.280Z,5.18
2022-11-29T15:33:23.292Z,5.16
2022-11-29T15:36:03.384Z,5.17
2022-11-29T15:38:30.208Z,5.15
2022-11-29T15:40:58.458Z,5.22
2022-11-29T15:43:34.915Z,5.19
2022-11-29T15:46:02.304Z,5.18
2022-11-29T15:48:31.662Z,5.15
2022-11-29T15:51:14.260Z,5.13
2022-11-29T15:54:12.127Z,5.19
2022-11-29T15:56:52.105Z,5.17
2022-11-29T15:59:25.673Z,5.16
2022-11-29T16:01:56.731Z,5.15
2022-11-29T16:04:24.486Z,5.16
2022-11-29T16:06:54.175Z,5.13
2022-11-29T16:09:39.993Z,5.13
2022-11-29T16:12:13.393Z,5.17
2022-11-29T16:14:58.764Z,5.16
2022-11-29T16:17:31.006Z,5.13
2022-11-29T16:20:19.350Z,5.13
2022-11-29T16:22:46.297Z,5.16
2022-11-29T16:25:18.997Z,5.13
2022-11-29T16:27:46.525Z,5.13
2022-11-29T16:30:27.659Z,5.09
2022-11-29T16:32:58.123Z,5.10
2022-11-29T16:35:28.107Z,5.09
2022-11-29T16:37:55.616Z,5.08
2022-11-29T16:40:30.964Z,5.07
2022-11-29T16:43:03.835Z,5.09
2022-11-29T16:45:34.038Z,5.07
2022-11-29T16:48:02.829Z,5.05
2022-11-29T16:50:31.648Z,5.06
2022-11-29T16:53:36.868Z,5.06
2022-11-29T16:56:05.577Z,5.08
2022-11-29T16:58:35.458Z,5.08
2022-11-29T17:01:26.670Z,5.06
2022-11-29T17:03:54.225Z,5.07
2022-11-29T17:06:22.813Z,5.08
2022-11-29T17:08:51.503Z,5.09
2022-11-29T17:11:18.668Z,5.03
2022-11-29T17:13:46.768Z,5.02
2022-11-29T17:16:19.455Z,4.98
2022-11-29T17:18:46.724Z,5.02
2022-11-29T17:21:21.647Z,5.05
2022-11-29T17:23:49.273Z,5.08
2022-11-29T17:26:16.575Z,5.08
2022-11-29T17:28:48.158Z,5.06
2022-11-29T17:31:17.766Z,5.10
2022-11-29T17:33:45.157Z,5.10
2022-11-29T17:36:15.526Z,5.09
2022-11-29T17:38:43.791Z,5.07
2022-11-29T17:41:12.784Z,5.07
2022-11-29T17:43:40.340Z,5.06
2022-11-29T17:46:15.475Z,4.88
2022-11-29T17:48:42.945Z,4.96
2022-11-29T17:51:29.147Z,5.01
2022-11-29T17:53:58.664Z,5.06
2022-11-29T17:56:25.715Z,5.04
2022-11-29T17:58:57.486Z,5.07
2022-11-29T18:01:26.592Z,5.05
2022-11-29T18:03:57.155Z,5.06
2022-11-29T18:06:29.475Z,5.05
2022-11-29T18:08:59.261Z,5.06
2022-11-29T18:11:29.854Z,5.01
2022-11-29T18:13:57.406Z,5.03
2022-11-29T18:16:30.115Z,5.05
2022-11-29T18:18:59.203Z,5.03
2022-11-29T18:21:26.339Z,5.05
2022-11-29T18:23:53.469Z,5.04
2022-11-29T18:26:23.342Z,5.04
2022-11-29T18:28:51.273Z,5.01
2022-11-29T18:31:19.207Z,5.02
2022-11-29T18:33:48.108Z,4.98
2022-11-29T18:36:20.753Z,5.02
2022-11-29T18:38:48.568Z,5.03
2022-11-29T18:41:18.474Z,5.02
2022-11-29T18:43:46.557Z,5.01
2022-11-29T18:46:18.864Z,4.98
2022-11-29T18:48:47.255Z,4.96
2022-11-29T18:51:17.587Z,4.98
2022-11-29T18:53:45.358Z,5.00
2022-11-29T18:56:18.301Z,4.98
2022-11-29T18:58:47.455Z,5.00
2022-11-29T19:01:16.775Z,4.98
2022-11-29T19:03:46.693Z,5.01
2022-11-29T19:06:16.219Z,5.02
2022-11-29T19:08:43.572Z,5.00
2022-11-29T19:11:15.607Z,5.01
2022-11-29T19:13:43.001Z,5.02
2022-11-29T19:16:14.509Z,5.01
2022-11-29T19:18:42.230Z,5.00
2022-11-29T19:21:15.188Z,4.95
2022-11-29T19:23:43.864Z,4.96
2022-11-29T19:26:15.731Z,4.97
2022-11-29T19:28:44.711Z,4.98
2022-11-29T19:31:14.441Z,4.96
2022-11-29T19:33:44.732Z,5.01
2022-11-29T19:36:20.736Z,4.98
2022-11-29T19:38:53.167Z,5.00
2022-11-29T19:41:25.202Z,4.98
2022-11-29T19:43:52.869Z,4.98
2022-11-29T19:46:24.728Z,5.00
2022-11-29T19:48:56.202Z,4.98
2022-11-29T19:51:24.688Z,4.97
2022-11-29T19:53:56.670Z,4.96
2022-11-29T19:56:23.845Z,4.98
2022-11-29T19:58:51.529Z,4.98
2022-11-29T20:01:28.088Z,4.96
2022-11-29T20:03:56.000Z,5.00
2022-11-29T20:06:22.743Z,4.97
2022-11-29T20:08:49.704Z,4.98
2022-11-29T20:11:19.134Z,4.97
2022-11-29T20:13:51.699Z,4.97
2022-11-29T20:16:19.323Z,4.96
2022-11-29T20:18:51.138Z,4.97
2022-11-29T20:21:25.589Z,4.97
2022-11-29T20:24:03.350Z,4.94
2022-11-29T20:26:31.897Z,4.94
2022-11-29T20:28:59.510Z,4.92
2022-11-29T20:31:26.447Z,4.92
2022-11-29T20:33:54.973Z,4.96
2022-11-29T20:37:09.779Z,4.95
2022-11-29T20:39:54.872Z,4.95
2022-11-29T20:42:27.412Z,5.00
2022-11-29T20:44:55.594Z,5.00
2022-11-29T20:47:25.445Z,5.00
2022-11-29T20:49:53.559Z,5.00
2022-11-29T20:52:42.538Z,4.98
2022-11-29T20:55:09.684Z,4.98
2022-11-29T20:57:38.380Z,4.97
2022-11-29T21:00:11.614Z,4.95
2022-11-29T21:02:38.853Z,4.94
2022-11-29T21:05:06.789Z,4.93
2022-11-29T21:07:33.867Z,4.93
2022-11-29T21:10:01.550Z,4.93
2022-11-29T21:12:30.308Z,4.92
2022-11-29T21:14:58.075Z,4.92
2022-11-29T21:17:30.242Z,4.89
2022-11-29T21:20:00.575Z,4.91
2022-11-29T21:22:51.701Z,4.92
2022-11-29T21:25:35.852Z,4.93
2022-11-29T21:28:04.145Z,4.91
2022-11-29T21:30:31.163Z,4.90
2022-11-29T21:32:58.236Z,4.91
2022-11-29T21:35:25.081Z,4.92
2022-11-29T21:37:56.805Z,4.93
2022-11-29T21:40:24.561Z,4.95
2022-11-29T21:42:51.377Z,4.96
2022-11-29T21:45:18.238Z,4.97
2022-11-29T21:47:45.672Z,4.97
2022-11-29T21:50:13.829Z,4.98
2022-11-29T21:52:40.981Z,4.98
2022-11-29T21:55:08.217Z,5.00
2022-11-29T21:57:34.974Z,5.01
2022-11-29T22:00:02.460Z,5.03
2022-11-29T22:02:31.273Z,5.05
2022-11-29T22:04:58.178Z,5.03
2022-11-29T22:07:25.008Z,5.04
2022-11-29T22:09:51.969Z,5.06
2022-11-29T22:12:35.138Z,5.07
2022-11-29T22:15:02.350Z,5.05
2022-11-29T22:17:29.070Z,5.08
2022-11-29T22:19:56.053Z,5.07
2022-11-29T22:22:25.072Z,5.08
2022-11-29T22:24:54.845Z,5.09
2022-11-29T22:27:21.631Z,5.09
2022-11-29T22:29:49.991Z,5.12
2022-11-29T22:32:16.834Z,5.11
2022-11-29T22:34:44.198Z,5.10
2022-11-29T22:37:12.519Z,5.11
2022-11-29T22:39:39.356Z,5.10
2022-11-29T22:42:07.337Z,5.11
2022-11-29T22:44:34.207Z,5.13
2022-11-29T22:47:00.997Z,5.12
2022-11-29T22:49:27.864Z,5.16
2022-11-29T22:51:54.968Z,5.15
2022-11-29T22:54:21.808Z,5.20
2022-11-29T22:56:48.568Z,5.17
2022-11-29T22:59:15.467Z,5.19
2022-11-29T23:01:42.652Z,5.16
2022-11-29T23:04:11.229Z,5.13
2022-11-29T23:06:41.188Z,5.15
2022-11-29T23:09:16.877Z,5.16
2022-11-29T23:11:45.269Z,5.13
2022-11-29T23:14:12.874Z,5.12
2022-11-29T23:16:39.775Z,5.13
2022-11-29T23:19:06.703Z,5.17
2022-11-29T23:21:35.767Z,5.18
2022-11-29T23:24:03.307Z,5.16
2022-11-29T23:26:31.624Z,5.16
2022-11-29T23:28:58.560Z,5.16
2022-11-29T23:31:26.026Z,5.15
2022-11-29T23:33:53.055Z,5.15
2022-11-29T23:36:20.164Z,5.17
2022-11-29T23:38:47.960Z,5.17
2022-11-29T23:41:14.928Z,5.17
2022-11-29T23:43:42.216Z,5.21
2022-11-29T23:46:11.039Z,5.20
2022-11-29T23:48:37.932Z,5.21
2022-11-29T23:51:04.987Z,5.23
2022-11-29T23:53:32.870Z,5.23
2022-11-29T23:56:07.677Z,5.22
2022-11-29T23:58:35.816Z,5.24
